Time;durP1;ratioP1;P1;durP2;ratioP2;P2;SDS_P1;SDS_P2;PMS_P1;PMS_P2;Temp;Humidity;BMP_temperature;BMP_pressure;BME280_temperature;BME280_humidity;BME280_pressure;Samples;Min_cycle;Max_cycle;Signal;HPM_P1;HPM_P2
2021/01/27 00:01:30;;;;;;;3.78;2.00;;;;;;;1.81;43.50;100798.16;5084291;28;20047;-72
2021/01/27 00:04:35;;;;;;;4.38;1.98;;;;;;;1.79;43.60;100797.38;5075762;28;20494;-72
2021/01/27 00:07:40;;;;;;;4.03;2.00;;;;;;;1.78;43.39;100800.06;5063340;28;20048;-72
2021/01/27 00:10:44;;;;;;;5.18;2.80;;;;;;;1.76;43.47;100789.56;5064326;28;20047;-71
2021/01/27 00:13:49;;;;;;;4.93;2.42;;;;;;;1.79;43.36;100783.28;5054041;28;20517;-72
2021/01/27 00:16:53;;;;;;;3.97;1.90;;;;;;;1.78;43.40;100784.19;5064197;28;20047;-72
2021/01/27 00:19:57;;;;;;;3.42;1.98;;;;;;;1.75;43.82;100768.47;5064129;28;20048;-72
2021/01/27 00:23:02;;;;;;;8.38;2.47;;;;;;;1.71;44.12;100767.75;5063782;28;20064;-73
2021/01/27 00:26:06;;;;;;;4.72;2.28;;;;;;;1.69;43.95;100781.97;5063929;28;20059;-73
2021/01/27 00:29:10;;;;;;;3.88;1.90;;;;;;;1.63;44.28;100779.63;5063677;28;20052;-72
2021/01/27 00:32:14;;;;;;;12.00;2.15;;;;;;;1.58;44.38;100774.50;5065525;28;20052;-72
2021/01/27 00:35:22;;;;;;;3.40;1.85;;;;;;;1.55;44.39;100782.59;5082017;28;20047;-71
2021/01/27 00:38:27;;;;;;;5.13;2.08;;;;;;;1.54;44.57;100783.50;5078711;28;20121;-72
2021/01/27 00:41:34;;;;;;;4.07;1.70;;;;;;;1.52;44.44;100777.44;5072368;28;20058;-77
2021/01/27 00:44:38;;;;;;;4.40;1.67;;;;;;;1.50;44.87;100778.44;5073305;28;20047;-78
2021/01/27 00:47:43;;;;;;;3.13;1.70;;;;;;;1.50;45.04;100778.44;5052226;28;20482;-77
2021/01/27 00:50:48;;;;;;;5.25;1.73;;;;;;;1.44;45.16;100779.56;5068495;28;20052;-76
2021/01/27 00:53:53;;;;;;;3.20;1.50;;;;;;;1.42;45.39;100781.41;5063657;28;20055;-76
2021/01/27 00:56:57;;;;;;;3.22;1.70;;;;;;;1.39;45.10;100778.88;5070951;28;20060;-75
2021/01/27 01:00:07;;;;;;;4.10;1.65;;;;;;;1.38;45.32;100785.13;5066243;28;20506;-76
2021/01/27 01:03:12;;;;;;;4.05;1.52;;;;;;;1.36;45.48;100776.38;5074469;28;20399;-74
2021/01/27 01:06:17;;;;;;;3.03;1.73;;;;;;;1.34;45.21;100778.22;5062787;28;20067;-77
2021/01/27 01:09:21;;;;;;;3.40;1.63;;;;;;;1.31;45.73;100768.63;5066216;28;20051;-75
2021/01/27 01:12:25;;;;;;;3.40;1.58;;;;;;;1.28;45.45;100778.50;5083147;28;20165;-77
2021/01/27 01:15:30;;;;;;;3.22;1.55;;;;;;;1.30;45.59;100777.53;5083122;28;20495;-73
2021/01/27 01:18:35;;;;;;;5.32;1.70;;;;;;;1.26;45.74;100775.91;5074475;28;20048;-72
2021/01/27 01:21:39;;;;;;;5.63;1.67;;;;;;;1.21;46.09;100771.78;5074239;28;20522;-71
2021/01/27 01:24:43;;;;;;;3.08;1.52;;;;;;;1.19;46.11;100763.88;5051279;28;20051;-71
2021/01/27 01:27:48;;;;;;;2.72;1.58;;;;;;;1.20;45.94;100775.31;5062631;28;20039;-71
2021/01/27 01:30:52;;;;;;;2.33;1.35;;;;;;;1.15;45.87;100772.88;5062312;28;20055;-76
2021/01/27 01:33:56;;;;;;;3.38;1.55;;;;;;;1.15;45.89;100769.38;5050706;28;20059;-70
2021/01/27 01:37:01;;;;;;;4.88;2.22;;;;;;;1.14;45.92;100759.72;5059107;28;20415;-72
2021/01/27 01:40:07;;;;;;;3.70;1.80;;;;;;;1.14;45.89;100759.72;5065339;28;20056;-71
2021/01/27 01:43:25;;;;;;;3.15;1.50;;;;;;;1.15;45.86;100749.09;5061952;28;20056;-75
2021/01/27 01:46:29;;;;;;;4.03;1.63;;;;;;;1.11;46.10;100747.50;5062295;28;20056;-72
2021/01/27 01:49:33;;;;;;;5.40;1.58;;;;;;;1.11;46.27;100742.19;5062026;28;20494;-71
2021/01/27 01:52:37;;;;;;;3.70;1.50;;;;;;;1.10;46.16;100732.56;5062622;28;20048;-71
2021/01/27 01:55:42;;;;;;;3.97;1.50;;;;;;;1.09;46.25;100730.84;5062606;28;20056;-71
2021/01/27 01:58:46;;;;;;;3.50;1.77;;;;;;;1.03;46.30;100712.63;5061876;28;20063;-70
2021/01/27 02:01:59;;;;;;;3.55;1.40;;;;;;;0.99;46.64;100720.72;5062192;28;20051;-72
2021/01/27 02:05:08;;;;;;;2.58;1.50;;;;;;;0.96;46.84;100732.31;5061984;28;20525;-71
2021/01/27 02:08:13;;;;;;;2.45;1.50;;;;;;;0.96;46.42;100723.50;5050623;28;20047;-70
2021/01/27 02:11:27;;;;;;;2.65;1.40;;;;;;;0.95;46.03;100733.22;5061997;28;20494;-72
2021/01/27 02:14:58;;;;;;;3.58;1.60;;;;;;;1.00;45.68;100735.66;5050566;28;20048;-71
2021/01/27 02:18:22;;;;;;;3.83;1.45;;;;;;;0.99;45.54;100726.88;5064818;28;20039;-73
2021/01/27 02:21:41;;;;;;;3.50;1.50;;;;;;;1.00;45.59;100725.09;5081917;28;20043;-74
2021/01/27 02:25:36;;;;;;;3.40;1.70;;;;;;;0.97;45.58;100744.59;5081824;28;20494;-71
2021/01/27 02:28:49;;;;;;;3.08;1.60;;;;;;;0.96;45.46;100742.00;5048652;28;20055;-75
2021/01/27 02:32:23;;;;;;;3.47;1.70;;;;;;;0.94;45.84;100735.94;5051807;28;20051;-72
2021/01/27 02:36:06;;;;;;;3.60;1.70;;;;;;;0.94;46.14;100744.69;5081881;28;20055;-72
2021/01/27 02:39:29;;;;;;;3.08;1.63;;;;;;;0.93;46.74;100721.88;5067168;28;20047;-72
2021/01/27 02:42:40;;;;;;;3.97;1.52;;;;;;;0.90;45.91;100722.00;5081644;28;20051;-71
2021/01/27 02:45:51;;;;;;;2.67;1.55;;;;;;;0.89;45.82;100724.72;5081050;28;20071;-72
2021/01/27 02:49:37;;;;;;;3.00;1.60;;;;;;;0.87;45.54;100711.53;5081676;28;20051;-70
2021/01/27 02:52:55;;;;;;;3.13;1.60;;;;;;;0.84;46.58;100714.31;5017572;28;20048;-70
2021/01/27 02:56:38;;;;;;;2.15;1.35;;;;;;;0.79;47.11;100716.28;5040099;28;20052;-71
2021/01/27 03:00:17;;;;;;;2.58;1.20;;;;;;;0.74;47.00;100720.91;5028971;28;20055;-72
2021/01/27 03:03:41;;;;;;;3.85;1.83;;;;;;;0.72;47.55;100714.00;4992190;28;20053;-70
2021/01/27 03:06:47;;;;;;;4.32;1.55;;;;;;;0.69;47.38;100716.75;4992401;28;20058;-72
2021/01/27 03:10:09;;;;;;;4.93;1.42;;;;;;;0.67;47.47;100705.41;4992342;28;20394;-72
2021/01/27 03:13:13;;;;;;;3.10;1.50;;;;;;;0.64;47.80;100698.47;4981144;28;20049;-76
2021/01/27 03:16:30;;;;;;;3.72;1.50;;;;;;;0.60;47.91;100692.44;4980976;28;20390;-75
2021/01/27 03:19:40;;;;;;;3.47;1.40;;;;;;;0.60;47.89;100697.72;4992340;28;20046;-75
2021/01/27 03:22:48;;;;;;;2.97;1.48;;;;;;;0.56;47.73;100695.28;4981086;28;20053;-76
2021/01/27 03:26:01;;;;;;;2.45;1.23;;;;;;;0.53;47.91;100696.25;4988202;28;20148;-76
2021/01/27 03:29:19;;;;;;;2.60;1.40;;;;;;;0.49;47.94;100705.19;4988940;28;20053;-78
2021/01/27 03:32:50;;;;;;;3.88;1.60;;;;;;;0.51;48.00;100713.09;4978328;28;20049;-70
2021/01/27 03:36:02;;;;;;;3.30;1.67;;;;;;;0.55;47.27;100717.31;4988205;28;20176;-72
2021/01/27 03:39:07;;;;;;;3.55;1.48;;;;;;;0.53;47.06;100714.75;5081424;28;20502;-77
2021/01/27 03:42:21;;;;;;;5.72;1.40;;;;;;;0.52;46.95;100707.72;5085000;28;20378;-79
2021/01/27 03:45:30;;;;;;;2.63;1.40;;;;;;;0.53;47.03;100712.09;5084890;28;20075;-72
2021/01/27 03:48:43;;;;;;;3.42;1.20;;;;;;;0.50;47.22;100709.56;5084493;28;20047;-76
2021/01/27 03:51:56;;;;;;;2.58;1.40;;;;;;;0.50;47.39;100709.56;5084760;28;20063;-73
2021/01/27 03:55:13;;;;;;;3.15;1.27;;;;;;;0.49;47.79;100721.03;5084412;28;20047;-73
2021/01/27 03:58:29;;;;;;;2.50;1.10;;;;;;;0.47;48.15;100724.72;5084656;28;20055;-73
2021/01/27 04:01:44;;;;;;;2.78;1.33;;;;;;;0.43;47.87;100741.56;5084743;28;20063;-76
2021/01/27 04:04:49;;;;;;;3.03;1.30;;;;;;;0.41;47.68;100746.94;5084532;28;20051;-75
2021/01/27 04:07:53;;;;;;;3.58;1.33;;;;;;;0.37;48.12;100718.91;5084296;28;20039;-76
2021/01/27 04:10:59;;;;;;;2.60;1.33;;;;;;;0.37;47.65;100726.81;5084146;28;20098;-72
2021/01/27 04:14:05;;;;;;;3.00;1.67;;;;;;;0.38;47.99;100722.41;5084363;28;20387;-70
2021/01/27 04:17:12;;;;;;;7.82;3.20;;;;;;;0.36;48.58;100733.06;5084300;28;20494;-74
2021/01/27 04:20:17;;;;;;;5.65;3.10;;;;;;;0.30;48.91;100737.69;5084230;28;20093;-78
2021/01/27 04:23:21;;;;;;;4.43;2.25;;;;;;;0.28;49.21;100739.53;5084647;28;20051;-71
2021/01/27 04:26:25;;;;;;;5.20;2.10;;;;;;;0.28;49.43;100732.50;5083756;28;20055;-73
2021/01/27 04:29:30;;;;;;;2.92;1.33;;;;;;;0.22;49.24;100729.25;5083440;28;20059;-73
2021/01/27 04:32:34;;;;;;;3.97;1.70;;;;;;;0.19;49.47;100724.09;5083877;28;20077;-73
2021/01/27 04:35:39;;;;;;;5.70;1.92;;;;;;;0.15;50.00;100711.94;5083791;28;20510;-78
2021/01/27 04:38:44;;;;;;;3.50;1.77;;;;;;;0.14;49.56;100716.34;5084122;28;20059;-72
2021/01/27 04:41:48;;;;;;;3.92;1.95;;;;;;;0.13;50.07;100711.97;5083791;28;20043;-77
2021/01/27 04:44:55;;;;;;;7.82;2.42;;;;;;;0.10;50.20;100708.63;5083733;28;20118;-72
2021/01/27 04:48:15;;;;;;;5.03;1.85;;;;;;;0.07;50.02;100706.97;5083914;28;20055;-76
2021/01/27 04:51:48;;;;;;;4.00;1.70;;;;;;;-0.01;49.95;100685.28;5083201;28;20051;-73
2021/01/27 04:55:19;;;;;;;3.00;1.58;;;;;;;0.06;49.88;100697.31;5083561;28;20043;-71
2021/01/27 04:58:52;;;;;;;3.53;1.75;;;;;;;0.05;49.63;100689.47;5083444;28;20055;-72
2021/01/27 05:02:29;;;;;;;3.75;1.48;;;;;;;0.03;49.79;100694.78;5083415;28;20054;-71
2021/01/27 05:05:37;;;;;;;3.75;1.40;;;;;;;-0.01;50.02;100680.88;5083275;28;20055;-74
2021/01/27 05:08:48;;;;;;;2.88;1.40;;;;;;;-0.04;50.44;100682.75;5083317;28;20051;-72
2021/01/27 05:11:53;;;;;;;4.00;1.98;;;;;;;-0.05;49.91;100687.16;5083191;28;20055;-72
2021/01/27 05:14:59;;;;;;;6.47;2.88;;;;;;;-0.05;50.15;100679.25;5083196;28;20509;-71
2021/01/27 05:18:03;;;;;;;3.85;2.22;;;;;;;-0.02;50.01;100683.56;5082800;28;20047;-72
2021/01/27 05:21:27;;;;;;;6.15;2.00;;;;;;;-0.04;50.19;100683.63;5083013;28;20062;-72
2021/01/27 05:24:33;;;;;;;3.35;1.80;;;;;;;-0.03;49.71;100687.13;5082793;28;20070;-72
2021/01/27 05:27:38;;;;;;;4.15;2.05;;;;;;;-0.03;49.75;100688.00;5062307;28;20433;-72
2021/01/27 05:30:57;;;;;;;4.63;1.70;;;;;;;-0.06;49.82;100681.97;5061919;28;20047;-71
2021/01/27 05:34:01;;;;;;;3.70;1.98;;;;;;;-0.08;50.15;100689.94;5062420;28;20055;-72
2021/01/27 05:37:17;;;;;;;6.20;1.60;;;;;;;-0.06;50.14;100692.53;5062706;28;20051;-70
2021/01/27 05:40:36;;;;;;;6.55;1.73;;;;;;;-0.11;49.81;100683.91;5062407;28;20067;-75
2021/01/27 05:43:41;;;;;;;3.97;2.00;;;;;;;-0.16;50.38;100683.25;5062451;28;20055;-76
2021/01/27 05:46:45;;;;;;;4.35;1.48;;;;;;;-0.16;50.64;100691.16;5062377;28;20047;-77
2021/01/27 05:49:50;;;;;;;2.97;1.55;;;;;;;-0.16;50.50;100696.44;5067243;28;20039;-71
2021/01/27 05:52:55;;;;;;;8.68;1.70;;;;;;;-0.17;50.70;100699.97;5082407;28;20499;-75
2021/01/27 05:56:20;;;;;;;3.78;1.67;;;;;;;-0.16;51.19;100697.28;5082058;28;20118;-75
2021/01/27 05:59:29;;;;;;;3.15;1.30;;;;;;;-0.15;51.17;100692.88;5082012;28;20055;-73
2021/01/27 06:02:41;;;;;;;32.40;18.55;;;;;;;-0.16;50.96;100701.72;5082224;28;20051;-74
2021/01/27 06:05:46;;;;;;;73.60;38.07;;;;;;;-0.19;50.84;100701.81;5081701;28;20060;-73
2021/01/27 06:08:54;;;;;;;23.80;13.73;;;;;;;-0.17;51.96;100711.38;5070713;28;20258;-73
2021/01/27 06:12:09;;;;;;;10.00;4.40;;;;;;;-0.13;52.21;100714.78;5070947;28;20407;-76
2021/01/27 06:15:27;;;;;;;6.50;2.40;;;;;;;-0.17;50.87;100719.31;5082312;28;20036;-73
2021/01/27 06:18:32;;;;;;;3.45;1.70;;;;;;;-0.18;50.80;100717.59;5082276;28;20043;-77
2021/01/27 06:22:08;;;;;;;2.72;1.50;;;;;;;-0.19;50.68;100726.41;5081985;28;20043;-71
2021/01/27 06:25:33;;;;;;;5.40;1.80;;;;;;;-0.14;51.00;100740.28;5081727;28;20043;-71
2021/01/27 06:28:44;;;;;;;2.60;1.33;;;;;;;-0.19;51.12;100744.00;5081909;28;20059;-70
2021/01/27 06:32:21;;;;;;;2.80;1.60;;;;;;;-0.20;51.07;100751.06;5081859;28;20067;-78
2021/01/27 06:35:38;;;;;;;3.63;1.73;;;;;;;-0.18;51.35;100756.31;5062123;28;20060;-69
2021/01/27 06:39:02;;;;;;;4.00;1.55;;;;;;;-0.16;51.01;100749.19;5061454;28;20051;-76
2021/01/27 06:42:24;;;;;;;4.60;1.98;;;;;;;-0.14;51.13;100752.63;5061754;28;20514;-74
2021/01/27 06:45:46;;;;;;;3.60;2.35;;;;;;;-0.14;50.95;100748.22;5070573;28;20510;-72
2021/01/27 06:49:23;;;;;;;3.75;1.90;;;;;;;-0.13;51.23;100757.00;5061180;28;20403;-70
2021/01/27 06:52:46;;;;;;;8.43;2.15;;;;;;;-0.15;51.05;100745.63;5073078;28;20055;-75
2021/01/27 06:56:31;;;;;;;4.50;2.20;;;;;;;-0.15;51.20;100746.47;5072962;28;20051;-72
2021/01/27 07:00:01;;;;;;;6.65;2.60;;;;;;;-0.16;50.85;100738.63;5073816;28;20047;-70
2021/01/27 07:03:37;;;;;;;6.32;2.65;;;;;;;-0.15;51.50;100748.28;5073678;28;20051;-70
2021/01/27 07:07:02;;;;;;;7.07;1.80;;;;;;;-0.04;51.21;100751.34;5073321;28;20072;-71
2021/01/27 07:10:27;;;;;;;5.13;1.77;;;;;;;0.00;50.70;100748.53;5084188;28;20519;-71
2021/01/27 07:13:35;;;;;;;4.70;1.50;;;;;;;0.12;50.78;100751.63;5073535;28;20059;-70
2021/01/27 07:17:11;;;;;;;4.20;1.50;;;;;;;0.20;50.17;100745.13;5074873;28;20127;-70
2021/01/27 07:20:26;;;;;;;3.17;1.73;;;;;;;0.35;49.76;100741.00;5088868;28;20063;-70
2021/01/27 07:23:53;;;;;;;9.82;3.97;;;;;;;0.53;49.65;100753.50;5107709;28;20055;-70
2021/01/27 07:27:05;;;;;;;13.80;5.90;;;;;;;0.87;49.02;100759.09;5079468;28;20063;-71
2021/01/27 07:30:17;;;;;;;14.80;8.05;;;;;;;1.11;48.47;100762.50;5079382;28;20051;-71
2021/01/27 07:33:33;;;;;;;8.13;3.58;;;;;;;1.22;47.97;100750.53;5064038;28;20052;-76
2021/01/27 07:36:45;;;;;;;4.30;2.00;;;;;;;1.36;47.67;100755.22;5084204;28;20047;-74
2021/01/27 07:40:02;;;;;;;6.25;2.70;;;;;;;1.27;47.13;100758.28;5055897;28;20043;-79
2021/01/27 07:43:29;;;;;;;4.75;2.38;;;;;;;1.21;46.95;100750.63;5063836;28;20048;-71
2021/01/27 07:46:40;;;;;;;9.38;3.25;;;;;;;1.24;47.30;100753.97;5075494;28;20123;-71
2021/01/27 07:49:54;;;;;;;9.05;6.15;;;;;;;1.40;47.16;100756.81;5052096;28;20048;-75
2021/01/27 07:53:02;;;;;;;6.15;2.30;;;;;;;1.77;45.99;100762.19;5075267;28;20063;-70
2021/01/27 07:56:50;;;;;;;6.30;2.00;;;;;;;2.45;44.32;100755.44;5075269;28;20067;-71
2021/01/27 08:00:14;;;;;;;7.95;4.40;;;;;;;3.13;42.98;100742.31;5031101;28;20056;-74
2021/01/27 08:03:47;;;;;;;6.78;3.95;;;;;;;5.94;37.93;100740.34;5042212;28;20060;-73
2021/01/27 08:06:54;;;;;;;10.27;6.13;;;;;;;8.45;32.63;100738.22;5042363;28;20559;-72
2021/01/27 08:10:32;;;;;;;7.47;4.90;;;;;;;10.35;28.97;100738.63;5042070;28;20554;-72
2021/01/27 08:13:40;;;;;;;9.13;5.00;;;;;;;11.61;27.32;100726.19;5042104;28;20131;-79
2021/01/27 08:16:47;;;;;;;12.00;5.18;;;;;;;12.39;26.27;100721.03;5053391;28;20491;-77
2021/01/27 08:20:17;;;;;;;8.23;4.47;;;;;;;13.66;24.54;100717.31;5042282;28;20108;-74
2021/01/27 08:23:21;;;;;;;94.25;59.22;;;;;;;14.72;23.63;100715.00;5041790;28;20052;-74
2021/01/27 08:26:43;;;;;;;30.25;22.15;;;;;;;16.06;21.34;100694.81;5058287;28;20471;-77
2021/01/27 08:29:54;;;;;;;24.60;19.25;;;;;;;17.01;20.66;100685.50;5057646;28;20492;-77
2021/01/27 08:33:42;;;;;;;19.60;14.23;;;;;;;18.98;19.06;100688.22;5049036;28;20052;-75
2021/01/27 08:37:04;;;;;;;11.63;5.88;;;;;;;21.12;17.37;100690.81;5123929;27;20734;-79
2021/01/27 08:40:14;;;;;;;11.98;6.60;;;;;;;20.33;17.54;100695.31;5073979;28;20051;-75
2021/01/27 08:43:18;;;;;;;14.90;9.35;;;;;;;19.40;18.43;100694.91;5086801;28;20051;-74
2021/01/27 08:46:42;;;;;;;17.20;10.18;;;;;;;18.51;19.34;100688.34;5086465;28;20399;-79
2021/01/27 08:49:58;;;;;;;22.27;11.02;;;;;;;16.65;20.81;100699.31;5098153;28;20051;-73
2021/01/27 08:53:11;;;;;;;23.42;11.18;;;;;;;15.08;22.67;100694.25;5092426;28;20043;-75
2021/01/27 08:56:15;;;;;;;22.92;10.40;;;;;;;13.60;24.38;100701.69;5085467;28;20070;-75
2021/01/27 08:59:29;;;;;;;24.02;10.73;;;;;;;13.23;24.95;100708.88;5098121;28;20047;-77
2021/01/27 09:02:47;;;;;;;24.95;10.52;;;;;;;12.19;26.51;100718.44;5098219;28;20047;-75
2021/01/27 09:05:51;;;;;;;16.95;6.93;;;;;;;11.66;27.00;100728.47;5097493;28;20395;-74
2021/01/27 09:09:31;;;;;;;12.85;5.53;;;;;;;11.95;27.25;100734.88;5083129;28;20055;-74
2021/01/27 09:12:34;;;;;;;13.18;3.67;;;;;;;13.26;25.82;100727.41;5086524;28;20047;-71
2021/01/27 09:15:38;;;;;;;6.15;2.13;;;;;;;14.26;25.05;100721.34;5120426;28;20050;-72
2021/01/27 09:18:52;;;;;;;3.70;1.95;;;;;;;14.74;24.40;100721.09;5118621;28;20054;-73
2021/01/27 09:22:05;;;;;;;7.68;1.73;;;;;;;15.43;24.32;100712.31;5118127;28;20050;-73
2021/01/27 09:25:10;;;;;;;8.67;1.97;;;;;;;16.51;23.27;100715.34;5106248;28;20050;-72
2021/01/27 09:28:23;;;;;;;6.18;1.70;;;;;;;16.89;22.50;100712.06;5106651;28;20054;-76
2021/01/27 09:31:27;;;;;;;8.93;1.80;;;;;;;16.31;23.39;100713.91;5115194;28;20042;-72
2021/01/27 09:34:33;;;;;;;11.50;1.98;;;;;;;16.70;22.66;100710.53;5070873;28;20075;-72
2021/01/27 09:37:48;;;;;;;7.25;2.67;;;;;;;16.37;22.41;100707.84;5092417;28;20055;-72
2021/01/27 09:41:00;;;;;;;4.63;1.90;;;;;;;15.77;21.87;100709.72;5096742;28;20604;-71
2021/01/27 09:44:19;;;;;;;4.88;1.52;;;;;;;14.53;22.36;100700.78;5097564;28;20488;-72
2021/01/27 09:47:25;;;;;;;4.75;1.70;;;;;;;13.42;24.34;100694.50;5080600;28;20051;-73
2021/01/27 09:50:30;;;;;;;3.90;2.08;;;;;;;12.76;25.02;100697.03;5082084;28;20043;-74
2021/01/27 09:53:37;;;;;;;7.88;2.15;;;;;;;12.13;25.88;100700.13;5082131;28;20051;-71
2021/01/27 09:56:41;;;;;;;4.15;2.17;;;;;;;11.44;26.86;100690.97;5092375;28;20051;-73
2021/01/27 09:59:54;;;;;;;4.22;2.13;;;;;;;10.69;28.00;100682.22;5083832;28;20051;-71
2021/01/27 10:03:12;;;;;;;3.47;2.13;;;;;;;10.31;28.51;100683.53;5063539;28;20048;-74
2021/01/27 10:06:37;;;;;;;5.85;2.13;;;;;;;9.80;29.51;100690.38;5080678;28;20395;-71
2021/01/27 10:09:50;;;;;;;8.07;3.40;;;;;;;9.53;30.44;100700.56;5075667;28;20060;-71
2021/01/27 10:12:56;;;;;;;5.18;2.70;;;;;;;9.21;31.18;100707.56;5062967;28;20090;-71
2021/01/27 10:16:12;;;;;;;4.80;2.80;;;;;;;9.14;31.47;100709.84;5100699;28;20055;-72
2021/01/27 10:19:32;;;;;;;7.38;3.15;;;;;;;9.18;31.25;100701.44;5104064;28;20043;-71
2021/01/27 10:22:41;;;;;;;9.02;3.53;;;;;;;8.90;31.63;100703.66;5061492;28;20051;-71
2021/01/27 10:25:45;;;;;;;8.27;3.97;;;;;;;8.97;32.11;100707.59;5082812;28;20054;-70
2021/01/27 10:29:16;;;;;;;14.90;3.72;;;;;;;9.01;32.80;100714.44;5071121;28;20051;-70
2021/01/27 10:32:34;;;;;;;11.60;4.07;;;;;;;8.94;33.00;100708.66;5083215;28;20043;-77
2021/01/27 10:35:38;;;;;;;8.75;4.00;;;;;;;8.88;32.44;100711.81;5070891;28;20051;-71
2021/01/27 10:38:43;;;;;;;7.18;3.83;;;;;;;9.01;33.54;100709.06;5071427;28;20110;-72
2021/01/27 10:41:54;;;;;;;9.20;3.95;;;;;;;9.05;32.78;100694.47;5078417;28;20047;-70
2021/01/27 10:45:27;;;;;;;6.25;3.25;;;;;;;9.26;32.26;100682.09;5084990;28;20048;-71
2021/01/27 10:48:32;;;;;;;7.50;3.33;;;;;;;9.20;29.22;100671.03;5065875;28;20043;-73
2021/01/27 10:51:42;;;;;;;8.65;3.90;;;;;;;9.37;29.70;100671.44;5071479;28;20043;-70
2021/01/27 10:54:46;;;;;;;6.25;3.67;;;;;;;9.69;29.00;100667.09;5063719;28;20056;-71
2021/01/27 10:58:00;;;;;;;5.18;3.35;;;;;;;9.69;27.73;100659.03;5062540;28;20055;-72
2021/01/27 11:01:04;;;;;;;;;;;;;;;9.43;27.02;100657.53;5051279;28;20391;-75
2021/01/27 11:04:08;;;;;;;5.20;3.08;;;;;;;9.32;27.76;100654.88;5080102;28;19916;-71
2021/01/27 11:07:13;;;;;;;6.38;3.13;;;;;;;9.48;27.80;100655.34;5079941;28;20051;-72
2021/01/27 11:10:18;;;;;;;6.28;3.30;;;;;;;9.57;28.20;100654.66;5082325;28;20047;-72
2021/01/27 11:13:23;;;;;;;6.35;3.42;;;;;;;9.31;28.50;100661.19;5079306;28;20047;-71
2021/01/27 11:16:27;;;;;;;6.32;3.08;;;;;;;9.20;28.77;100663.00;5061966;28;20055;-73
2021/01/27 11:19:31;;;;;;;6.47;3.30;;;;;;;8.92;27.87;100667.78;5084784;28;20067;-72
2021/01/27 11:22:35;;;;;;;4.90;3.20;;;;;;;8.77;28.79;100665.41;5061982;28;20059;-72
2021/01/27 11:25:50;;;;;;;6.53;3.15;;;;;;;8.62;29.01;100669.22;5078602;28;20055;-73
2021/01/27 11:28:55;;;;;;;4.72;2.80;;;;;;;8.49;30.07;100664.78;5065260;28;20046;-74
2021/01/27 11:31:59;;;;;;;6.78;3.28;;;;;;;8.36;30.92;100650.63;5081361;28;20056;-74
2021/01/27 11:35:04;;;;;;;5.68;3.30;;;;;;;8.37;31.56;100641.63;5064991;28;20506;-75
2021/01/27 11:38:08;;;;;;;9.93;3.75;;;;;;;8.46;31.53;100638.28;5081770;28;20058;-71
2021/01/27 11:41:13;;;;;;;6.20;3.60;;;;;;;8.52;32.62;100642.31;5070223;28;20055;-71
2021/01/27 11:44:18;;;;;;;8.35;3.97;;;;;;;8.46;32.56;100624.91;5093402;28;20067;-72
2021/01/27 11:47:22;;;;;;;9.90;3.63;;;;;;;8.59;33.60;100615.97;5093421;28;20403;-72
2021/01/27 11:50:30;;;;;;;8.10;3.60;;;;;;;8.66;32.32;100625.22;5093144;28;20055;-72
2021/01/27 11:53:34;;;;;;;6.38;3.95;;;;;;;8.85;32.04;100646.94;5091336;28;20055;-70
2021/01/27 11:56:40;;;;;;;;;;;;;;;8.80;31.57;100635.72;5092470;28;20055;-72
2021/01/27 11:59:45;;;;;;;6.85;3.90;;;;;;;8.56;30.48;100622.41;5102045;28;19915;-72
2021/01/27 12:02:50;;;;;;;8.40;3.65;;;;;;;8.69;29.67;100639.22;5093439;28;20051;-72
2021/01/27 12:05:54;;;;;;;6.50;4.07;;;;;;;8.76;30.08;100650.31;5080455;28;20056;-73
2021/01/27 12:08:58;;;;;;;6.72;3.42;;;;;;;8.38;29.42;100632.66;5082475;28;20051;-72
2021/01/27 12:12:04;;;;;;;7.90;3.72;;;;;;;8.57;29.48;100629.44;5088676;28;20510;-74
2021/01/27 12:15:09;;;;;;;7.82;4.00;;;;;;;8.84;30.27;100626.53;5093502;28;20051;-75
2021/01/27 12:18:14;;;;;;;11.70;4.13;;;;;;;8.83;30.74;100633.69;5093187;28;20054;-70
2021/01/27 12:21:19;;;;;;;7.75;4.07;;;;;;;8.87;29.51;100623.59;5090514;28;20047;-76
2021/01/27 12:24:24;;;;;;;7.60;3.70;;;;;;;8.90;30.32;100615.31;5074029;28;20047;-72
2021/01/27 12:27:29;;;;;;;7.28;3.72;;;;;;;8.66;29.75;100617.19;5079451;28;20278;-73
2021/01/27 12:30:33;;;;;;;7.88;4.45;;;;;;;8.52;30.06;100621.75;5081825;28;20051;-76
2021/01/27 12:33:39;;;;;;;9.65;4.15;;;;;;;8.57;31.09;100629.44;5099687;28;20043;-72
2021/01/27 12:36:43;;;;;;;7.00;3.83;;;;;;;8.48;29.59;100622.97;5090426;28;20055;-75
2021/01/27 12:39:47;;;;;;;10.70;4.10;;;;;;;8.33;30.55;100618.75;5091362;28;20395;-77
2021/01/27 12:42:51;;;;;;;6.32;4.40;;;;;;;8.07;30.59;100614.47;5092729;28;20051;-76
2021/01/27 12:45:56;;;;;;;5.28;3.80;;;;;;;8.11;31.79;100607.91;5093349;28;20051;-75
2021/01/27 12:49:00;;;;;;;8.20;4.03;;;;;;;8.18;31.80;100594.94;5091296;28;20048;-77
2021/01/27 12:52:05;;;;;;;9.00;4.50;;;;;;;8.19;33.20;100592.16;5091753;28;20051;-76
2021/01/27 12:55:13;;;;;;;7.68;4.22;;;;;;;8.02;33.22;100589.88;5093026;28;20394;-74
2021/01/27 12:58:19;;;;;;;6.72;4.63;;;;;;;7.87;34.91;100588.34;5073243;28;20055;-73
2021/01/27 13:01:23;;;;;;;9.32;5.40;;;;;;;7.70;36.03;100578.84;5092786;28;20047;-70
2021/01/27 13:04:27;;;;;;;7.70;4.72;;;;;;;7.64;36.58;100584.66;5087520;28;20066;-77
2021/01/27 13:07:31;;;;;;;;;;;;;;;7.56;36.08;100572.78;5094001;28;20051;-75
2021/01/27 13:10:41;;;;;;;6.47;4.70;;;;;;;7.57;35.30;100577.19;5084044;28;19916;-72
2021/01/27 13:13:45;;;;;;;10.10;4.35;;;;;;;7.57;34.99;100578.03;5111282;28;20043;-70
2021/01/27 13:16:50;;;;;;;9.23;4.82;;;;;;;7.71;35.47;100561.88;5110852;28;20059;-71
2021/01/27 13:19:54;;;;;;;6.72;4.65;;;;;;;7.68;35.63;100566.56;5113260;28;20054;-74
2021/01/27 13:22:58;;;;;;;7.70;4.90;;;;;;;7.79;35.73;100574.66;5108391;28;20047;-73
2021/01/27 13:26:05;;;;;;;7.03;4.85;;;;;;;7.71;36.03;100572.56;5079487;28;20055;-72
2021/01/27 13:29:09;;;;;;;7.93;5.57;;;;;;;7.72;35.90;100562.72;5097579;28;20050;-71
2021/01/27 13:32:16;;;;;;;7.53;5.20;;;;;;;7.75;35.69;100562.50;5117018;28;20054;-72
2021/01/27 13:35:23;;;;;;;8.98;4.72;;;;;;;7.72;34.89;100542.22;5116494;28;20047;-73
2021/01/27 13:38:28;;;;;;;7.95;4.60;;;;;;;7.75;34.75;100549.16;5086674;28;20055;-72
2021/01/27 13:41:32;;;;;;;7.25;4.60;;;;;;;7.71;34.59;100547.66;5064044;28;20056;-72
2021/01/27 13:44:38;;;;;;;6.47;4.20;;;;;;;7.69;34.52;100544.25;5090143;28;20115;-74
2021/01/27 13:47:43;;;;;;;10.55;4.72;;;;;;;7.50;34.68;100549.22;5092025;28;20054;-72
2021/01/27 13:50:47;;;;;;;9.88;5.38;;;;;;;7.40;34.93;100549.03;5092000;28;20399;-74
2021/01/27 13:53:52;;;;;;;10.32;5.30;;;;;;;7.35;34.74;100544.97;5095487;28;20102;-72
2021/01/27 13:56:56;;;;;;;9.75;5.15;;;;;;;7.39;34.99;100546.44;5106485;28;20403;-71
2021/01/27 14:00:00;;;;;;;10.02;5.40;;;;;;;7.47;37.04;100542.28;5095427;28;20497;-72
2021/01/27 14:03:05;;;;;;;8.52;4.95;;;;;;;7.42;34.52;100552.44;5095547;28;20043;-72
2021/01/27 14:06:09;;;;;;;;;;;;;;;7.34;34.68;100554.78;5094316;28;20051;-72
2021/01/27 14:09:13;;;;;;;9.23;5.32;;;;;;;7.21;33.67;100544.13;5113088;28;19915;-72
2021/01/27 14:12:18;;;;;;;9.20;5.18;;;;;;;7.07;35.25;100538.06;5093379;28;20051;-71
2021/01/27 14:15:24;;;;;;;8.40;5.80;;;;;;;7.05;36.44;100546.19;5095190;28;20063;-72
2021/01/27 14:18:28;;;;;;;6.80;5.28;;;;;;;7.08;36.78;100550.44;5094450;28;20063;-72
2021/01/27 14:21:33;;;;;;;9.85;5.97;;;;;;;6.93;37.00;100560.38;5095622;28;20043;-72
2021/01/27 14:24:37;;;;;;;15.88;5.18;;;;;;;6.91;35.63;100561.44;5094962;28;20498;-73
2021/01/27 14:27:42;;;;;;;10.73;5.88;;;;;;;6.85;36.96;100559.19;5095298;28;20063;-72
2021/01/27 14:30:47;;;;;;;9.02;5.35;;;;;;;6.86;37.56;100555.56;5095173;28;20055;-72
2021/01/27 14:33:52;;;;;;;12.88;6.65;;;;;;;6.79;37.63;100549.78;5084718;28;20062;-73
2021/01/27 14:36:56;;;;;;;10.18;7.05;;;;;;;6.82;38.13;100548.72;5093837;28;20059;-73
2021/01/27 14:40:00;;;;;;;16.77;6.28;;;;;;;6.73;37.12;100544.91;5094274;28;20051;-72
2021/01/27 14:43:04;;;;;;;11.60;5.45;;;;;;;6.69;35.97;100543.38;5094124;28;20064;-74
2021/01/27 14:46:09;;;;;;;11.23;5.70;;;;;;;6.74;35.85;100549.25;5092413;28;20051;-72
2021/01/27 14:49:13;;;;;;;8.20;5.65;;;;;;;6.66;35.32;100558.75;5092923;28;20047;-72
2021/01/27 14:52:18;;;;;;;9.85;6.20;;;;;;;6.66;34.04;100546.28;5094609;28;20054;-72
2021/01/27 14:55:23;;;;;;;8.63;5.45;;;;;;;6.71;34.10;100544.16;5091092;28;20055;-72
2021/01/27 14:58:27;;;;;;;9.20;5.50;;;;;;;6.78;33.76;100533.91;5097465;28;20043;-71